Time;durP1;ratioP1;P1;durP2;ratioP2;P2;SDS_P1;SDS_P2;PMS_P1;PMS_P2;Temp;Humidity;BMP_temperature;BMP_pressure;BME280_temperature;BME280_humidity;BME280_pressure;Samples;Min_cycle;Max_cycle;Signal;HPM_P1;HPM_P2
2021/08/25 00:00:23;;;;;;;;;6.75;6.75;;;;;;;;5075762;28;8875;-88
2021/08/25 00:02:50;;;;;;;;;5.75;5.75;;;;;;;;5049683;28;8889;-89
2021/08/25 00:05:17;;;;;;;;;6.00;6.00;;;;;;;;5072401;28;8992;-87
2021/08/25 00:07:44;;;;;;;;;6.50;6.50;;;;;;;;5060845;28;8892;-87
2021/08/25 00:10:12;;;;;;;;;5.75;5.75;;;;;;;;5067381;28;8874;-80
2021/08/25 00:12:40;;;;;;;;;6.00;6.00;;;;;;;;5063291;28;8859;-84
2021/08/25 00:15:08;;;;;;;;;7.00;7.00;;;;;;;;5067137;28;8870;-90
2021/08/25 00:17:37;;;;;;;;;10.25;10.25;;;;;;;;5061843;28;8865;-79
2021/08/25 00:20:06;;;;;;;;;9.00;7.00;;;;;;;;5078966;28;9605;-80
2021/08/25 00:22:33;;;;;;;;;4.25;4.25;;;;;;;;5064448;28;8872;-81
2021/08/25 00:25:00;;;;;;;;;7.50;7.50;;;;;;;;5060258;28;8881;-80
2021/08/25 00:27:28;;;;;;;;;7.25;7.25;;;;;;;;5080456;28;8891;-81
2021/08/25 00:29:55;;;;;;;;;4.25;4.25;;;;;;;;5077859;28;8983;-88
2021/08/25 00:32:22;;;;;;;;;6.00;6.00;;;;;;;;5054824;28;8877;-84
2021/08/25 00:34:51;;;;;;;;;11.25;10.75;;;;;;;;5066748;28;8971;-87
2021/08/25 00:37:18;;;;;;;;;6.00;6.00;;;;;;;;5074144;28;8947;-88
2021/08/25 00:39:46;;;;;;;;;8.00;7.00;;;;;;;;5066284;28;8846;-85
2021/08/25 00:42:13;;;;;;;;;7.25;7.25;;;;;;;;5060923;28;8996;-84
2021/08/25 00:44:40;;;;;;;;;8.50;8.50;;;;;;;;5079635;28;8869;-83
2021/08/25 00:47:08;;;;;;;;;6.75;6.75;;;;;;;;5066516;28;8856;-85
2021/08/25 00:49:35;;;;;;;;;8.25;8.25;;;;;;;;5073488;28;9552;-88
2021/08/25 00:52:05;;;;;;;;;8.25;8.25;;;;;;;;5052380;28;8852;-83
2021/08/25 00:54:32;;;;;;;;;5.00;5.00;;;;;;;;5055977;28;10127;-88
2021/08/25 00:57:00;;;;;;;;;6.00;6.00;;;;;;;;5066892;28;10095;-83
2021/08/25 00:59:27;;;;;;;;;8.25;6.00;;;;;;;;5069146;28;8917;-86
2021/08/25 01:02:02;;;;;;;;;8.00;8.00;;;;;;;;5071361;28;8817;-81
2021/08/25 01:04:36;;;;;;;;;5.75;5.75;;;;;;;;5060240;28;8901;-87
2021/08/25 01:07:05;;;;;;;;;6.25;6.25;;;;;;;;5056745;28;8881;-85
2021/08/25 01:09:33;;;;;;;;;10.25;8.75;;;;;;;;5053546;28;8851;-82
2021/08/25 01:12:01;;;;;;;;;10.75;8.50;;;;;;;;5066020;28;9016;-79
2021/08/25 01:14:29;;;;;;;;;8.50;7.00;;;;;;;;5056135;28;8952;-84
2021/08/25 01:16:58;;;;;;;;;8.25;8.25;;;;;;;;5077247;28;8868;-81
2021/08/25 01:19:27;;;;;;;;;7.00;7.00;;;;;;;;5079532;28;8884;-81
2021/08/25 01:21:55;;;;;;;;;8.50;8.50;;;;;;;;5063957;28;8887;-86
2021/08/25 01:24:25;;;;;;;;;7.50;7.50;;;;;;;;5068733;28;8856;-83
2021/08/25 01:26:54;;;;;;;;;7.00;7.00;;;;;;;;5056818;28;8872;-83
2021/08/25 01:29:30;;;;;;;;;7.00;7.00;;;;;;;;5064845;28;8884;-84
2021/08/25 01:31:58;;;;;;;;;9.00;8.00;;;;;;;;5057412;28;8803;-89
2021/08/25 01:34:25;;;;;;;;;7.00;7.00;;;;;;;;5065205;28;8858;-87
2021/08/25 01:36:53;;;;;;;;;8.50;8.50;;;;;;;;5061932;28;8858;-83
2021/08/25 01:39:21;;;;;;;;;10.50;7.25;;;;;;;;5060588;28;8875;-82
2021/08/25 01:41:49;;;;;;;;;11.00;9.50;;;;;;;;5061502;28;8867;-87
2021/08/25 01:44:17;;;;;;;;;8.50;8.50;;;;;;;;5056778;28;8846;-77
2021/08/25 01:46:46;;;;;;;;;6.75;6.00;;;;;;;;5054168;28;8854;-80
2021/08/25 01:49:16;;;;;;;;;9.25;6.75;;;;;;;;5053078;28;8857;-81
2021/08/25 01:51:43;;;;;;;;;10.50;8.25;;;;;;;;5059032;28;8851;-86
2021/08/25 01:54:12;;;;;;;;;8.75;8.75;;;;;;;;5078004;28;8853;-83
2021/08/25 01:56:40;;;;;;;;;12.00;9.00;;;;;;;;5061883;28;8863;-81
2021/08/25 01:59:08;;;;;;;;;7.75;7.75;;;;;;;;5075625;28;8869;-82
2021/08/25 02:01:35;;;;;;;;;8.00;8.00;;;;;;;;5066579;28;8935;-83
2021/08/25 02:04:04;;;;;;;;;10.75;9.00;;;;;;;;5065602;28;8880;-85
2021/08/25 02:06:31;;;;;;;;;9.75;9.75;;;;;;;;5056182;28;8925;-82
2021/08/25 02:08:59;;;;;;;;;9.25;8.25;;;;;;;;5068023;28;8863;-86
2021/08/25 02:11:26;;;;;;;;;10.00;10.00;;;;;;;;5060646;28;8891;-83
2021/08/25 02:13:54;;;;;;;;;9.75;9.75;;;;;;;;5055635;28;9149;-80
2021/08/25 02:16:21;;;;;;;;;7.50;7.50;;;;;;;;5064183;28;8860;-80
2021/08/25 02:18:49;;;;;;;;;8.00;8.00;;;;;;;;5064950;28;8872;-84
2021/08/25 02:21:21;;;;;;;;;7.25;5.00;;;;;;;;5053867;28;8857;-83
2021/08/25 02:23:48;;;;;;;;;9.50;9.50;;;;;;;;5061388;28;8929;-84
2021/08/25 02:26:17;;;;;;;;;8.50;8.50;;;;;;;;5068410;28;8890;-83
2021/08/25 02:28:45;;;;;;;;;9.50;9.50;;;;;;;;5096672;27;8898;-81
2021/08/25 02:31:13;;;;;;;;;11.75;9.50;;;;;;;;5046253;28;8807;-85
2021/08/25 02:33:40;;;;;;;;;7.50;7.25;;;;;;;;5048652;28;8900;-83
2021/08/25 02:36:08;;;;;;;;;9.00;9.00;;;;;;;;5051361;28;8874;-87
2021/08/25 02:38:39;;;;;;;;;11.25;6.75;;;;;;;;5064491;28;8860;-84
2021/08/25 02:41:10;;;;;;;;;10.00;10.00;;;;;;;;5071044;28;8864;-80
2021/08/25 02:43:38;;;;;;;;;9.25;9.25;;;;;;;;5047194;28;8906;-88
2021/08/25 02:46:06;;;;;;;;;9.00;9.00;;;;;;;;5053609;28;8873;-80
2021/08/25 02:48:34;;;;;;;;;9.00;7.25;;;;;;;;5072005;28;8872;-88
2021/08/25 02:51:01;;;;;;;;;10.25;10.00;;;;;;;;5061056;28;8867;-88
2021/08/25 02:53:28;;;;;;;;;12.00;9.25;;;;;;;;5058075;28;8856;-82
2021/08/25 02:55:57;;;;;;;;;8.00;8.00;;;;;;;;5063558;28;8849;-80
2021/08/25 02:58:24;;;;;;;;;9.75;7.75;;;;;;;;5065302;28;8872;-80
2021/08/25 03:00:52;;;;;;;;;8.33;8.33;;;;;;;;5070353;28;8918;-84
2021/08/25 03:03:19;;;;;;;;;11.25;11.25;;;;;;;;5067926;28;9183;-86
2021/08/25 03:05:46;;;;;;;;;9.25;9.25;;;;;;;;5073490;28;8860;-82
2021/08/25 03:08:13;;;;;;;;;12.25;10.00;;;;;;;;5055729;28;8869;-87
2021/08/25 03:10:41;;;;;;;;;15.00;11.75;;;;;;;;5056722;28;8860;-78
2021/08/25 03:13:09;;;;;;;;;10.67;9.00;;;;;;;;5048991;28;8996;-84
2021/08/25 03:15:37;;;;;;;;;8.50;8.50;;;;;;;;5070544;28;9725;-78
2021/08/25 03:18:05;;;;;;;;;9.00;9.00;;;;;;;;5079936;28;8864;-83
2021/08/25 03:20:33;;;;;;;;;11.00;9.00;;;;;;;;5062429;28;8990;-83
2021/08/25 03:23:00;;;;;;;;;11.50;9.75;;;;;;;;5057870;28;8933;-86
2021/08/25 03:25:27;;;;;;;;;7.50;7.50;;;;;;;;5059784;28;8862;-83
2021/08/25 03:27:54;;;;;;;;;9.25;9.25;;;;;;;;5055432;28;9743;-85
2021/08/25 03:30:23;;;;;;;;;9.00;8.50;;;;;;;;5055721;28;8902;-85
2021/08/25 03:32:51;;;;;;;;;10.25;8.50;;;;;;;;5060596;28;8866;-84
2021/08/25 03:35:18;;;;;;;;;8.00;8.00;;;;;;;;5075198;28;8881;-80
2021/08/25 03:37:45;;;;;;;;;9.00;9.00;;;;;;;;5065162;28;8860;-83
2021/08/25 03:40:13;;;;;;;;;6.50;6.50;;;;;;;;5058744;28;8859;-86
2021/08/25 03:42:40;;;;;;;;;10.00;10.00;;;;;;;;5052043;28;8861;-82
2021/08/25 03:45:09;;;;;;;;;5.00;5.00;;;;;;;;5057280;28;8872;-85
2021/08/25 03:47:37;;;;;;;;;7.00;7.00;;;;;;;;5102314;28;8888;-87
2021/08/25 03:50:05;;;;;;;;;7.75;5.50;;;;;;;;5068697;28;8899;-83
2021/08/25 03:52:33;;;;;;;;;6.00;6.00;;;;;;;;5071325;28;8846;-85
2021/08/25 03:55:00;;;;;;;;;9.00;8.25;;;;;;;;5064872;28;8888;-87
2021/08/25 03:57:27;;;;;;;;;9.00;9.00;;;;;;;;5049119;28;8855;-80
2021/08/25 03:59:55;;;;;;;;;9.25;9.25;;;;;;;;5054181;28;8894;-85
2021/08/25 04:02:22;;;;;;;;;8.00;8.00;;;;;;;;5059010;28;8795;-82
2021/08/25 04:04:51;;;;;;;;;9.33;9.33;;;;;;;;5058435;28;9027;-85
2021/08/25 04:07:18;;;;;;;;;8.33;8.33;;;;;;;;5075580;28;9010;-76
2021/08/25 04:09:46;;;;;;;;;8.67;8.67;;;;;;;;5056588;28;9100;-78
2021/08/25 04:12:13;;;;;;;;;10.67;8.00;;;;;;;;5072554;28;9090;-84
2021/08/25 04:14:41;;;;;;;;;8.67;8.67;;;;;;;;5063985;28;9303;-81
2021/08/25 04:17:08;;;;;;;;;7.33;7.33;;;;;;;;5067526;28;9245;-82
2021/08/25 04:19:36;;;;;;;;;8.67;8.67;;;;;;;;5065438;28;9121;-80
2021/08/25 04:22:05;;;;;;;;;7.00;7.00;;;;;;;;5065685;28;9202;-82
2021/08/25 04:24:32;;;;;;;;;7.67;7.67;;;;;;;;5067009;28;9221;-82
2021/08/25 04:27:00;;;;;;;;;9.67;8.33;;;;;;;;5068808;28;9377;-79
2021/08/25 04:29:27;;;;;;;;;8.67;8.67;;;;;;;;5070810;28;9174;-83
2021/08/25 04:31:54;;;;;;;;;8.00;8.00;;;;;;;;5067174;28;9275;-82
2021/08/25 04:34:22;;;;;;;;;8.00;8.00;;;;;;;;5069018;28;9251;-83
2021/08/25 04:36:49;;;;;;;;;8.75;8.75;;;;;;;;5069897;28;9264;-82
2021/08/25 04:39:18;;;;;;;;;7.25;7.00;;;;;;;;5068619;28;9599;-77
2021/08/25 04:41:46;;;;;;;;;9.50;9.50;;;;;;;;5067505;28;9519;-79
2021/08/25 04:44:13;;;;;;;;;8.00;8.00;;;;;;;;5066437;28;9470;-81
2021/08/25 04:46:41;;;;;;;;;10.50;10.50;;;;;;;;5064258;28;9525;-80
2021/08/25 04:49:08;;;;;;;;;8.50;8.50;;;;;;;;5070497;28;9685;-84
2021/08/25 04:51:35;;;;;;;;;10.00;10.00;;;;;;;;5067236;28;9665;-80
2021/08/25 04:54:03;;;;;;;;;5.75;5.75;;;;;;;;5061493;28;9550;-81
2021/08/25 04:56:32;;;;;;;;;11.25;11.25;;;;;;;;5067676;28;9720;-82
2021/08/25 04:58:59;;;;;;;;;11.25;10.75;;;;;;;;5067929;28;9777;-86
2021/08/25 05:01:26;;;;;;;;;14.00;11.50;;;;;;;;5062530;28;9562;-85
2021/08/25 05:03:54;;;;;;;;;13.00;13.00;;;;;;;;5063569;28;9706;-84
2021/08/25 05:06:21;;;;;;;;;10.50;10.50;;;;;;;;5063254;28;9739;-80
2021/08/25 05:08:48;;;;;;;;;10.25;10.00;;;;;;;;5066999;28;9692;-83
2021/08/25 05:11:16;;;;;;;;;13.00;11.25;;;;;;;;5057664;28;9577;-83
2021/08/25 05:13:45;;;;;;;;;11.50;11.50;;;;;;;;5053050;28;9723;-80
2021/08/25 05:16:12;;;;;;;;;13.50;13.50;;;;;;;;5065853;28;9799;-76
2021/08/25 05:18:40;;;;;;;;;10.75;10.75;;;;;;;;5068838;28;10820;-78
2021/08/25 05:21:07;;;;;;;;;13.00;12.75;;;;;;;;5066234;28;9715;-76
2021/08/25 05:23:35;;;;;;;;;15.00;12.75;;;;;;;;5066896;28;9903;-74
2021/08/25 05:26:04;;;;;;;;;15.75;13.75;;;;;;;;5066051;28;9773;-74
2021/08/25 05:28:31;;;;;;;;;13.00;10.25;;;;;;;;5063725;28;9866;-74
2021/08/25 05:31:00;;;;;;;;;14.00;14.00;;;;;;;;5044190;28;9820;-75
2021/08/25 05:33:27;;;;;;;;;12.75;10.25;;;;;;;;5057937;28;9711;-74
2021/08/25 05:35:55;;;;;;;;;13.00;13.00;;;;;;;;5062690;28;9758;-74
2021/08/25 05:38:22;;;;;;;;;13.25;12.75;;;;;;;;5064724;28;9732;-74
2021/08/25 05:40:49;;;;;;;;;16.75;11.25;;;;;;;;5065389;28;10575;-74
2021/08/25 05:43:17;;;;;;;;;14.00;14.00;;;;;;;;5065356;28;9702;-74
2021/08/25 05:45:44;;;;;;;;;13.00;13.00;;;;;;;;5063730;28;9729;-75
2021/08/25 05:48:13;;;;;;;;;15.00;13.25;;;;;;;;5065518;28;9709;-75
2021/08/25 05:50:40;;;;;;;;;10.50;10.50;;;;;;;;5064254;28;9548;-75
2021/08/25 05:53:09;;;;;;;;;14.00;14.00;;;;;;;;5052290;28;9558;-74
2021/08/25 05:55:37;;;;;;;;;15.25;14.25;;;;;;;;5064063;28;9471;-75
2021/08/25 05:58:05;;;;;;;;;14.00;14.00;;;;;;;;5065357;28;9546;-74
2021/08/25 06:00:33;;;;;;;;;16.75;15.50;;;;;;;;5064038;28;9499;-74
2021/08/25 06:03:00;;;;;;;;;15.50;15.50;;;;;;;;5064197;28;9590;-74
2021/08/25 06:05:29;;;;;;;;;16.25;15.50;;;;;;;;5064963;28;9485;-74
2021/08/25 06:07:56;;;;;;;;;16.25;15.00;;;;;;;;5064076;28;9773;-75
2021/08/25 06:10:23;;;;;;;;;17.00;14.50;;;;;;;;5066402;28;9594;-74
2021/08/25 06:12:51;;;;;;;;;15.00;14.50;;;;;;;;5064080;28;10287;-75
2021/08/25 06:15:18;;;;;;;;;20.00;13.50;;;;;;;;5064763;28;9566;-74
2021/08/25 06:17:46;;;;;;;;;12.67;12.67;;;;;;;;5062747;28;9488;-74
2021/08/25 06:20:14;;;;;;;;;16.67;12.33;;;;;;;;5063823;28;9535;-74
2021/08/25 06:22:43;;;;;;;;;17.00;17.00;;;;;;;;5064321;28;9190;-74
2021/08/25 06:25:11;;;;;;;;;14.67;14.67;;;;;;;;5063465;28;9412;-74
2021/08/25 06:27:38;;;;;;;;;17.00;15.33;;;;;;;;5064795;28;9344;-74
2021/08/25 06:30:07;;;;;;;;;16.33;16.33;;;;;;;;5063068;28;9260;-75
2021/08/25 06:32:34;;;;;;;;;17.33;17.33;;;;;;;;5064192;28;9321;-74
2021/08/25 06:35:02;;;;;;;;;17.00;17.00;;;;;;;;5063705;28;9331;-74
2021/08/25 06:37:29;;;;;;;;;19.67;17.67;;;;;;;;5063659;28;9248;-75
2021/08/25 06:39:57;;;;;;;;;16.67;16.67;;;;;;;;5064315;28;9703;-74
2021/08/25 06:42:25;;;;;;;;;17.67;16.00;;;;;;;;5063367;28;9193;-74
2021/08/25 06:44:52;;;;;;;;;19.00;19.00;;;;;;;;5063434;28;10003;-74
2021/08/25 06:47:19;;;;;;;;;17.00;16.00;;;;;;;;5063272;28;9224;-74
2021/08/25 06:49:47;;;;;;;;;16.33;16.33;;;;;;;;5064102;28;9087;-74
2021/08/25 06:52:14;;;;;;;;;14.67;14.67;;;;;;;;5061926;28;8974;-75
2021/08/25 06:54:41;;;;;;;;;19.00;18.67;;;;;;;;5063397;28;8978;-74
2021/08/25 06:57:11;;;;;;;;;17.00;17.00;;;;;;;;5058526;28;9037;-75
2021/08/25 06:59:38;;;;;;;;;21.00;18.00;;;;;;;;5056105;28;8973;-74
2021/08/25 07:02:06;;;;;;;;;20.25;20.25;;;;;;;;5063659;28;8993;-74
2021/08/25 07:04:33;;;;;;;;;19.25;17.75;;;;;;;;5062984;28;8891;-74
2021/08/25 07:07:00;;;;;;;;;17.00;17.00;;;;;;;;5064113;28;9011;-75
2021/08/25 07:09:27;;;;;;;;;22.00;19.00;;;;;;;;5063188;28;10075;-74
2021/08/25 07:11:54;;;;;;;;;16.25;16.25;;;;;;;;5063400;28;8955;-74
2021/08/25 07:14:23;;;;;;;;;20.25;18.00;;;;;;;;5063545;28;8862;-75
2021/08/25 07:16:50;;;;;;;;;15.00;15.00;;;;;;;;5063105;28;8873;-75
2021/08/25 07:19:18;;;;;;;;;12.50;12.00;;;;;;;;5064140;28;8913;-74
2021/08/25 07:21:45;;;;;;;;;19.75;17.25;;;;;;;;5062795;28;8868;-75
2021/08/25 07:24:13;;;;;;;;;20.00;16.25;;;;;;;;5063351;28;8894;-75
2021/08/25 07:26:41;;;;;;;;;16.25;15.75;;;;;;;;5063112;28;8880;-75
2021/08/25 07:29:08;;;;;;;;;13.75;13.50;;;;;;;;5061883;28;8994;-74
2021/08/25 07:31:37;;;;;;;;;14.00;12.75;;;;;;;;5062718;28;9461;-74
2021/08/25 07:34:04;;;;;;;;;11.00;11.00;;;;;;;;5062862;28;8884;-74
2021/08/25 07:36:32;;;;;;;;;13.75;13.75;;;;;;;;5064277;28;8840;-74
2021/08/25 07:38:59;;;;;;;;;14.25;14.25;;;;;;;;5061691;28;8863;-74
2021/08/25 07:41:26;;;;;;;;;14.50;14.00;;;;;;;;5054194;28;8851;-74
2021/08/25 07:43:54;;;;;;;;;12.75;12.25;;;;;;;;5059598;28;8965;-74
2021/08/25 07:46:21;;;;;;;;;12.75;11.25;;;;;;;;5063277;28;8876;-74
2021/08/25 07:48:50;;;;;;;;;11.00;11.00;;;;;;;;5063026;28;9189;-74
2021/08/25 07:51:17;;;;;;;;;10.75;10.75;;;;;;;;5063687;28;8864;-74
2021/08/25 07:53:45;;;;;;;;;13.25;9.75;;;;;;;;5064030;28;8868;-75
2021/08/25 07:56:12;;;;;;;;;10.25;10.00;;;;;;;;5062974;28;8876;-75
2021/08/25 07:58:39;;;;;;;;;12.75;10.00;;;;;;;;5065264;28;8882;-74
2021/08/25 08:01:07;;;;;;;;;11.50;10.00;;;;;;;;5065838;28;8813;-74
2021/08/25 08:03:34;;;;;;;;;10.75;10.75;;;;;;;;5053515;28;8876;-74
2021/08/25 08:06:03;;;;;;;;;9.50;9.50;;;;;;;;5066527;28;8891;-74
2021/08/25 08:08:31;;;;;;;;;11.00;10.00;;;;;;;;5067350;28;8900;-74
2021/08/25 08:10:58;;;;;;;;;9.75;9.75;;;;;;;;5065558;28;8857;-74
2021/08/25 08:13:26;;;;;;;;;11.50;11.00;;;;;;;;5066305;28;9674;-74
2021/08/25 08:15:53;;;;;;;;;11.50;11.50;;;;;;;;5067031;28;8867;-75
2021/08/25 08:18:29;;;;;;;;;9.75;9.75;;;;;;;;5065571;28;8876;-75
2021/08/25 08:20:56;;;;;;;;;8.00;7.00;;;;;;;;5067095;28;8867;-74
2021/08/25 08:23:25;;;;;;;;;10.00;9.25;;;;;;;;5065132;28;8860;-75
2021/08/25 08:25:52;;;;;;;;;12.00;10.00;;;;;;;;5061314;28;8860;-75
2021/08/25 08:28:19;;;;;;;;;9.50;9.25;;;;;;;;5065679;28;8969;-75
2021/08/25 08:30:46;;;;;;;;;8.00;8.00;;;;;;;;5065020;28;8777;-75
2021/08/25 08:33:14;;;;;;;;;11.75;11.50;;;;;;;;5066855;28;8868;-75
2021/08/25 08:35:41;;;;;;;;;8.00;8.00;;;;;;;;5062624;28;8874;-75
2021/08/25 08:38:09;;;;;;;;;9.75;9.75;;;;;;;;5057859;28;8906;-75
2021/08/25 08:40:38;;;;;;;;;9.25;8.50;;;;;;;;5065368;28;8872;-75
2021/08/25 08:43:06;;;;;;;;;9.50;9.50;;;;;;;;5066758;28;9665;-75
2021/08/25 08:45:38;;;;;;;;;4.75;4.75;;;;;;;;5052860;28;8852;-76
2021/08/25 08:48:06;;;;;;;;;9.75;9.75;;;;;;;;5066320;28;8921;-75
2021/08/25 08:50:35;;;;;;;;;13.20;10.20;;;;;;;;5066257;28;9562;-76
2021/08/25 08:53:03;;;;;;;;;10.80;10.80;;;;;;;;5065038;28;8880;-75
2021/08/25 08:55:30;;;;;;;;;13.40;11.00;;;;;;;;5066265;28;8868;-76
2021/08/25 08:57:59;;;;;;;;;6.40;6.40;;;;;;;;5065461;28;9001;-76
2021/08/25 09:00:26;;;;;;;;;8.80;8.80;;;;;;;;5065663;28;8764;-76
2021/08/25 09:02:54;;;;;;;;;7.40;7.40;;;;;;;;5066500;28;8921;-76
2021/08/25 09:05:23;;;;;;;;;6.80;6.80;;;;;;;;5065755;28;8848;-76
2021/08/25 09:07:56;;;;;;;;;9.00;8.60;;;;;;;;5066612;28;8937;-76
2021/08/25 09:10:28;;;;;;;;;10.80;10.80;;;;;;;;5055276;28;8867;-76
2021/08/25 09:12:58;;;;;;;;;6.80;6.80;;;;;;;;5062919;28;8871;-77
2021/08/25 09:15:27;;;;;;;;;8.20;8.20;;;;;;;;5064993;28;8911;-76
2021/08/25 09:17:59;;;;;;;;;12.00;10.40;;;;;;;;5066013;28;8907;-76
2021/08/25 09:20:26;;;;;;;;;12.00;10.00;;;;;;;;5066317;28;9683;-76
2021/08/25 09:23:12;;;;;;;;;9.00;7.80;;;;;;;;5065163;28;8879;-77
2021/08/25 09:25:40;;;;;;;;;7.00;7.00;;;;;;;;5064515;28;9050;-77
2021/08/25 09:28:10;;;;;;;;;8.60;8.60;;;;;;;;5063961;28;8910;-76
2021/08/25 09:30:51;;;;;;;;;9.20;9.20;;;;;;;;5065368;28;8814;-77
2021/08/25 09:33:19;;;;;;;;;14.00;13.60;;;;;;;;5056502;28;8868;-76
2021/08/25 09:35:47;;;;;;;;;11.80;10.80;;;;;;;;5051203;28;9019;-77
2021/08/25 09:38:18;;;;;;;;;13.00;13.00;;;;;;;;5064692;28;8864;-76
2021/08/25 09:40:46;;;;;;;;;10.00;10.00;;;;;;;;5064593;28;8872;-76
2021/08/25 09:43:32;;;;;;;;;9.60;9.00;;;;;;;;5065599;28;8919;-77
2021/08/25 09:46:07;;;;;;;;;9.60;9.60;;;;;;;;5052292;28;8868;-77
2021/08/25 09:48:36;;;;;;;;;11.60;11.00;;;;;;;;5064954;28;8888;-77
2021/08/25 09:51:04;;;;;;;;;11.20;11.20;;;;;;;;5065562;28;8973;-76
2021/08/25 09:53:31;;;;;;;;;25.00;23.20;;;;;;;;5078141;28;8857;-75
2021/08/25 09:55:58;;;;;;;;;29.40;27.20;;;;;;;;5065325;28;8872;-77
2021/08/25 09:58:27;;;;;;;;;12.00;11.20;;;;;;;;5064317;28;8868;-77
2021/08/25 10:00:55;;;;;;;;;14.40;13.60;;;;;;;;5053649;28;8937;-76
2021/08/25 10:03:23;;;;;;;;;14.80;14.80;;;;;;;;5061155;28;8898;-76
2021/08/25 10:05:50;;;;;;;;;11.00;11.00;;;;;;;;5064601;28;8911;-76
2021/08/25 10:08:18;;;;;;;;;9.60;9.60;;;;;;;;5065569;28;8874;-76
2021/08/25 10:10:46;;;;;;;;;12.40;12.40;;;;;;;;5064046;28;8852;-76
2021/08/25 10:13:14;;;;;;;;;9.20;9.20;;;;;;;;5064833;28;8959;-76
2021/08/25 10:15:47;;;;;;;;;8.00;8.00;;;;;;;;5063845;28;8875;-76
2021/08/25 10:18:25;;;;;;;;;12.20;10.20;;;;;;;;5064112;28;8883;-75
2021/08/25 10:20:54;;;;;;;;;9.20;9.20;;;;;;;;5064213;28;8855;-76
2021/08/25 10:23:35;;;;;;;;;9.80;8.00;;;;;;;;5064244;28;8887;-76
2021/08/25 10:26:06;;;;;;;;;9.20;9.20;;;;;;;;5061094;28;8868;-75
2021/08/25 10:29:06;;;;;;;;;9.40;9.40;;;;;;;;5063664;28;8925;-76
2021/08/25 10:32:10;;;;;;;;;7.00;7.00;;;;;;;;5060064;28;8816;-76
2021/08/25 10:34:40;;;;;;;;;8.40;8.40;;;;;;;;5062265;28;8882;-77
2021/08/25 10:37:26;;;;;;;;;6.20;6.20;;;;;;;;5063429;28;9669;-76
2021/08/25 10:39:59;;;;;;;;;7.40;7.40;;;;;;;;5063887;28;8915;-75
2021/08/25 10:42:55;;;;;;;;;9.40;9.40;;;;;;;;5063927;28;8856;-76
2021/08/25 10:45:55;;;;;;;;;5.20;5.20;;;;;;;;5018107;28;9617;-76
2021/08/25 10:48:41;;;;;;;;;8.20;8.20;;;;;;;;5062579;28;8847;-77
2021/08/25 10:54:05;;;;;;;;;7.00;5.00;;;;;;;;5109666;27;13555;-75
2021/08/25 10:56:35;;;;;;;;;6.00;6.00;;;;;;;;5099597;28;8862;-75
2021/08/25 10:59:04;;;;;;;;;7.40;7.00;;;;;;;;5091299;28;8925;-75
2021/08/25 11:01:33;;;;;;;;;7.40;7.40;;;;;;;;5064427;28;8827;-77
2021/08/25 11:04:02;;;;;;;;;7.40;7.40;;;;;;;;5051095;28;8896;-77
2021/08/25 11:06:40;;;;;;;;;7.80;7.40;;;;;;;;5064993;28;8871;-78
2021/08/25 11:09:31;;;;;;;;;7.40;7.40;;;;;;;;5060574;28;9004;-79
2021/08/25 11:12:00;;;;;;;;;5.00;5.00;;;;;;;;5028727;28;8877;-78
2021/08/25 11:14:31;;;;;;;;;3.20;2.20;;;;;;;;5052387;28;8880;-77
2021/08/25 11:17:03;;;;;;;;;6.20;6.20;;;;;;;;5049479;28;8911;-76
2021/08/25 11:19:32;;;;;;;;;6.20;4.20;;;;;;;;5053280;28;8878;-76
2021/08/25 11:22:00;;;;;;;;;6.20;6.20;;;;;;;;5060131;28;8881;-75
2021/08/25 11:24:47;;;;;;;;;5.80;5.80;;;;;;;;5052531;28;8885;-76
2021/08/25 11:27:23;;;;;;;;;4.00;4.00;;;;;;;;5055293;28;8879;-76
2021/08/25 11:30:10;;;;;;;;;5.00;5.00;;;;;;;;5033482;28;8907;-76
2021/08/25 11:32:42;;;;;;;;;6.40;5.40;;;;;;;;5046693;28;8837;-76
2021/08/25 11:35:10;;;;;;;;;8.60;5.20;;;;;;;;5049537;28;8895;-76
2021/08/25 11:37:38;;;;;;;;;6.20;6.20;;;;;;;;5057486;28;8845;-77
2021/08/25 11:40:08;;;;;;;;;4.60;4.20;;;;;;;;5055879;28;8877;-77
2021/08/25 11:42:37;;;;;;;;;4.80;4.80;;;;;;;;5057150;28;10105;-77
2021/08/25 11:45:15;;;;;;;;;4.40;4.40;;;;;;;;5053504;28;8884;-77
2021/08/25 11:47:48;;;;;;;;;5.60;5.20;;;;;;;;5059365;28;8881;-77
2021/08/25 11:50:16;;;;;;;;;5.00;5.00;;;;;;;;5059469;28;9460;-77
2021/08/25 11:52:43;;;;;;;;;5.80;5.60;;;;;;;;5049371;28;8866;-76
2021/08/25 11:55:12;;;;;;;;;5.20;5.20;;;;;;;;5059433;28;8911;-77
2021/08/25 11:57:41;;;;;;;;;3.40;3.40;;;;;;;;5060363;28;8874;-77
2021/08/25 12:00:10;;;;;;;;;6.00;6.00;;;;;;;;5054062;28;8862;-77
2021/08/25 12:02:57;;;;;;;;;5.40;5.40;;;;;;;;5060298;28;8874;-78
2021/08/25 12:05:26;;;;;;;;;6.40;6.40;;;;;;;;5045177;28;8902;-77
2021/08/25 12:08:14;;;;;;;;;5.00;5.00;;;;;;;;5047015;28;8904;-77
2021/08/25 12:10:45;;;;;;;;;7.00;6.00;;;;;;;;5026850;28;8902;-77
2021/08/25 12:13:13;;;;;;;;;8.80;7.20;;;;;;;;5019901;28;8878;-76
2021/08/25 12:15:49;;;;;;;;;4.20;4.20;;;;;;;;5041731;28;8862;-76
2021/08/25 12:18:17;;;;;;;;;4.80;4.80;;;;;;;;5038285;28;8878;-76
2021/08/25 12:20:46;;;;;;;;;3.60;3.60;;;;;;;;5046748;28;8890;-76
2021/08/25 12:23:15;;;;;;;;;4.00;4.00;;;;;;;;5046221;28;8881;-77
2021/08/25 12:25:46;;;;;;;;;5.80;5.80;;;;;;;;5041631;28;9627;-77
2021/08/25 12:28:15;;;;;;;;;8.40;5.00;;;;;;;;5018156;28;9652;-75
2021/08/25 12:30:44;;;;;;;;;5.40;4.40;;;;;;;;5027608;28;9619;-78
2021/08/25 12:33:12;;;;;;;;;7.60;7.60;;;;;;;;5021433;28;8905;-79
2021/08/25 12:35:40;;;;;;;;;4.80;4.80;;;;;;;;5028026;28;8882;-77
2021/08/25 12:38:08;;;;;;;;;5.20;5.20;;;;;;;;5044272;28;8883;-77
2021/08/25 12:40:36;;;;;;;;;5.80;5.80;;;;;;;;5025918;28;8859;-77
2021/08/25 12:43:05;;;;;;;;;5.40;5.20;;;;;;;;5045770;28;8858;-76
2021/08/25 12:45:32;;;;;;;;;5.80;5.80;;;;;;;;5045523;28;8851;-77
2021/08/25 12:47:59;;;;;;;;;7.20;7.20;;;;;;;;5027652;28;8928;-78
2021/08/25 12:50:27;;;;;;;;;7.60;5.80;;;;;;;;5043770;28;8871;-77
2021/08/25 12:52:54;;;;;;;;;5.00;5.00;;;;;;;;5029582;28;8880;-76
2021/08/25 12:55:22;;;;;;;;;7.40;6.20;;;;;;;;5045337;28;8854;-78
2021/08/25 12:57:50;;;;;;;;;5.00;5.00;;;;;;;;5045158;28;9660;-76
2021/08/25 13:00:19;;;;;;;;;5.00;5.00;;;;;;;;5044259;28;8886;-79
2021/08/25 13:02:47;;;;;;;;;6.40;6.40;;;;;;;;5045551;28;8888;-79
2021/08/25 13:05:14;;;;;;;;;8.00;8.00;;;;;;;;5042250;28;8998;-75
2021/08/25 13:07:42;;;;;;;;;7.60;7.60;;;;;;;;5043107;28;8893;-79
2021/08/25 13:10:11;;;;;;;;;6.40;6.40;;;;;;;;5043040;28;8882;-76
2021/08/25 13:12:39;;;;;;;;;4.80;4.80;;;;;;;;5028633;28;8872;-77
2021/08/25 13:15:08;;;;;;;;;5.20;5.20;;;;;;;;5024191;28;8857;-79
2021/08/25 13:17:36;;;;;;;;;8.00;6.60;;;;;;;;5044783;28;8866;-77
2021/08/25 13:20:04;;;;;;;;;6.40;6.40;;;;;;;;5044127;28;8878;-79
2021/08/25 13:22:32;;;;;;;;;6.60;6.60;;;;;;;;5035283;28;9868;-79
2021/08/25 13:24:59;;;;;;;;;7.40;7.40;;;;;;;;5030966;28;8885;-77
2021/08/25 13:27:26;;;;;;;;;4.60;4.60;;;;;;;;5032266;28;8881;-76
2021/08/25 13:29:53;;;;;;;;;6.80;6.80;;;;;;;;5037285;28;8858;-78
2021/08/25 13:32:21;;;;;;;;;6.60;4.40;;;;;;;;5037000;28;8822;-78
2021/08/25 13:34:49;;;;;;;;;5.20;5.00;;;;;;;;5041304;28;8879;-79
2021/08/25 13:37:17;;;;;;;;;6.60;6.60;;;;;;;;5037362;28;8873;-80
2021/08/25 13:39:44;;;;;;;;;6.40;6.40;;;;;;;;5030678;28;8874;-80
2021/08/25 13:42:11;;;;;;;;;5.20;5.20;;;;;;;;5026263;28;8860;-79
2021/08/25 13:44:38;;;;;;;;;13.00;10.20;;;;;;;;5029604;28;8904;-79
2021/08/25 13:47:06;;;;;;;;;6.00;6.00;;;;;;;;5043633;28;8846;-79
2021/08/25 13:49:33;;;;;;;;;6.60;6.60;;;;;;;;5010405;28;8852;-77
2021/08/25 13:52:02;;;;;;;;;9.40;9.20;;;;;;;;5027024;28;8912;-78
2021/08/25 13:54:29;;;;;;;;;5.80;5.80;;;;;;;;5042816;28;8973;-79
2021/08/25 13:56:57;;;;;;;;;5.40;5.40;;;;;;;;5035616;28;8866;-78
2021/08/25 13:59:25;;;;;;;;;6.60;6.60;;;;;;;;5039946;28;8904;-80
2021/08/25 14:01:52;;;;;;;;;4.60;4.60;;;;;;;;5040824;28;8925;-79
2021/08/25 14:04:19;;;;;;;;;4.80;4.80;;;;;;;;5038209;28;8862;-80
2021/08/25 14:06:46;;;;;;;;;5.20;5.20;;;;;;;;5015459;28;8884;-82
2021/08/25 14:09:16;;;;;;;;;3.00;3.00;;;;;;;;5033461;28;8858;-80
2021/08/25 14:11:43;;;;;;;;;6.60;5.00;;;;;;;;5024726;28;8987;-80
2021/08/25 14:14:11;;;;;;;;;7.00;7.00;;;;;;;;5037363;28;9002;-79
2021/08/25 14:16:38;;;;;;;;;5.40;5.40;;;;;;;;5028016;28;9701;-81
2021/08/25 14:19:05;;;;;;;;;4.60;4.60;;;;;;;;5032740;28;8896;-77
2021/08/25 14:21:33;;;;;;;;;5.80;5.80;;;;;;;;5035449;28;8869;-77
2021/08/25 14:24:00;;;;;;;;;5.40;5.40;;;;;;;;5029915;28;9275;-77
2021/08/25 14:26:29;;;;;;;;;6.60;5.40;;;;;;;;5034904;28;8866;-77
2021/08/25 14:28:57;;;;;;;;;5.00;5.00;;;;;;;;5029445;28;8920;-81
2021/08/25 14:31:24;;;;;;;;;6.80;6.60;;;;;;;;5038831;28;8839;-79
2021/08/25 14:33:52;;;;;;;;;5.00;5.00;;;;;;;;5018972;28;9008;-80
2021/08/25 14:36:19;;;;;;;;;6.00;5.00;;;;;;;;5030988;28;9661;-78
2021/08/25 14:38:46;;;;;;;;;5.60;5.60;;;;;;;;5027511;28;8872;-82
2021/08/25 14:41:14;;;;;;;;;6.00;6.00;;;;;;;;5023754;28;8901;-79
2021/08/25 14:43:42;;;;;;;;;5.60;5.00;;;;;;;;5033141;28;8866;-81
2021/08/25 14:46:09;;;;;;;;;5.20;5.00;;;;;;;;5038177;28;8874;-80
2021/08/25 14:48:37;;;;;;;;;6.00;6.00;;;;;;;;5034459;28;8850;-78
2021/08/25 14:51:05;;;;;;;;;6.00;6.00;;;;;;;;5029174;28;8992;-80
2021/08/25 14:53:33;;;;;;;;;6.00;6.00;;;;;;;;5033374;28;8878;-80
2021/08/25 14:56:02;;;;;;;;;5.60;5.60;;;;;;;;5044107;28;9734;-80
2021/08/25 14:58:29;;;;;;;;;6.80;6.80;;;;;;;;5037334;28;8870;-80
2021/08/25 15:00:58;;;;;;;;;6.60;6.60;;;;;;;;5043144;28;8806;-82